AFL100 ULLI-EFHK
Flight info
| Callsign | AFL100 |
|---|---|
| Flight time | N/A |
| Altitude | 22000 |
| Route | UTETA1A/28R K0833F300UTETA M60 ATLUM T561 LEDUN DCT |
| Aircraft | T144/H-SDE2E3FGHIRYW/X |
Departure
| Time | 2026-04-30 18:09 |
|---|---|
| Airport | Pulkovo Airport (ULLI) |
Arrival
| Time | N/A |
|---|---|
| Airport | Helsinki Vantaa Airport (EFHK) |
| Time | Latitude | Longitude | Altitude | Speed | Heading |
|---|---|---|---|---|---|
| 2026-04-30 17:39 | 59.80185 | 30.26898 | 88 ft | 0 kts | 107° |
| 2026-04-30 18:02 | 59.80189 | 30.26874 | 91 ft | 2 kts | 107° |
| 2026-04-30 18:03 | 59.80171 | 30.26692 | 90 ft | 0 kts | 14° |
| 2026-04-30 18:04 | 59.80376 | 30.26840 | 89 ft | 10 kts | 58° |
| 2026-04-30 18:05 | 59.80223 | 30.28018 | 88 ft | 34 kts | 106° |
| 2026-04-30 18:06 | 59.79968 | 30.29724 | 86 ft | 29 kts | 107° |
| 2026-04-30 18:07 | 59.79991 | 30.30136 | 85 ft | 0 kts | 46° |
| 2026-04-30 18:08 | 59.80205 | 30.29664 | 86 ft | 99 kts | 287° |
| 2026-04-30 18:09 | 59.82075 | 30.15598 | 3813 ft | 394 kts | 285° |
| 2026-04-30 18:10 | 59.84137 | 29.94860 | 16089 ft | 383 kts | 260° |
| 2026-04-30 18:11 | 59.81033 | 29.74717 | 23658 ft | 441 kts | 269° |
| 2026-04-30 18:11 | 59.77416 | 29.53793 | 23247 ft | 568 kts | 259° |
| 2026-04-30 18:12 | 59.74407 | 29.31388 | 23102 ft | 551 kts | 272° |
| 2026-04-30 18:13 | 59.73537 | 29.16293 | 23278 ft | 552 kts | 272° |
| 2026-04-30 18:13 | 59.72353 | 28.95188 | 29712 ft | 453 kts | 274° |
| 2026-04-30 18:14 | 59.71250 | 28.84291 | 34356 ft | 360 kts | 272° |
| 2026-04-30 18:15 | 59.70706 | 28.69212 | 30995 ft | 384 kts | 288° |
| 2026-04-30 18:15 | 59.71764 | 28.52351 | 24788 ft | 448 kts | 291° |
| 2026-04-30 18:16 | 59.73008 | 28.39553 | 20881 ft | 478 kts | 289° |
| 2026-04-30 18:16 | 59.74234 | 28.26409 | 20192 ft | 464 kts | 289° |
| 2026-04-30 18:17 | 59.74869 | 28.20323 | 20127 ft | 450 kts | 287° |
| 2026-04-30 18:17 | 59.74968 | 28.13991 | 20158 ft | 472 kts | 271° |
| 2026-04-30 18:17 | 59.73837 | 28.01044 | 20134 ft | 476 kts | 268° |
| 2026-04-30 18:18 | 59.73605 | 27.94620 | 20088 ft | 458 kts | 287° |
| 2026-04-30 18:18 | 59.74469 | 27.88770 | 19868 ft | 433 kts | 303° |
| 2026-04-30 18:18 | 59.75585 | 27.83216 | 19831 ft | 440 kts | 293° |
| 2026-04-30 18:18 | 59.76265 | 27.77339 | 19846 ft | 427 kts | 289° |
| 2026-04-30 18:19 | 59.76610 | 27.71676 | 19783 ft | 408 kts | 286° |
| 2026-04-30 18:19 | 59.77004 | 27.66277 | 19663 ft | 386 kts | 289° |
| 2026-04-30 18:19 | 59.77482 | 27.61047 | 19516 ft | 385 kts | 291° |
| 2026-04-30 18:19 | 59.78091 | 27.55912 | 19379 ft | 380 kts | 294° |
| 2026-04-30 18:20 | 59.78777 | 27.50864 | 19238 ft | 378 kts | 295° |
| 2026-04-30 18:20 | 59.79484 | 27.45845 | 19102 ft | 377 kts | 295° |
| 2026-04-30 18:20 | 59.80189 | 27.40821 | 18965 ft | 377 kts | 295° |
| 2026-04-30 18:20 | 59.80884 | 27.35811 | 18831 ft | 376 kts | 295° |
| 2026-04-30 18:21 | 59.81575 | 27.30810 | 18695 ft | 375 kts | 295° |
| 2026-04-30 18:21 | 59.82260 | 27.25817 | 18464 ft | 375 kts | 294° |
| 2026-04-30 18:21 | 59.82949 | 27.20810 | 17932 ft | 372 kts | 293° |
| 2026-04-30 18:21 | 59.83625 | 27.15891 | 17762 ft | 368 kts | 293° |
| 2026-04-30 18:22 | 59.84291 | 27.11034 | 17601 ft | 370 kts | 293° |
| 2026-04-30 18:22 | 59.85643 | 27.01139 | 16449 ft | 368 kts | 292° |
| 2026-04-30 18:22 | 59.86309 | 26.96241 | 15880 ft | 365 kts | 292° |
| 2026-04-30 18:23 | 59.86984 | 26.91331 | 14852 ft | 372 kts | 292° |
| 2026-04-30 18:23 | 59.87673 | 26.86369 | 14243 ft | 369 kts | 291° |
| 2026-04-30 18:23 | 59.88328 | 26.81507 | 13811 ft | 360 kts | 291° |
| 2026-04-30 18:23 | 59.88967 | 26.76714 | 13336 ft | 357 kts | 291° |
| 2026-04-30 18:24 | 59.90166 | 26.67155 | 12381 ft | 353 kts | 289° |
| 2026-04-30 18:24 | 59.90743 | 26.62418 | 11903 ft | 351 kts | 289° |
| 2026-04-30 18:24 | 59.91360 | 26.57745 | 11440 ft | 347 kts | 290° |
| 2026-04-30 18:25 | 59.91982 | 26.53117 | 11020 ft | 343 kts | 290° |
| 2026-04-30 18:25 | 59.93171 | 26.44022 | 10486 ft | 341 kts | 288° |
| 2026-04-30 18:25 | 59.93670 | 26.39406 | 10252 ft | 339 kts | 287° |
| 2026-04-30 18:26 | 59.94754 | 26.30309 | 10232 ft | 337 kts | 290° |
| 2026-04-30 18:26 | 59.95358 | 26.25791 | 10251 ft | 337 kts | 290° |
| 2026-04-30 18:26 | 59.95993 | 26.21304 | 10276 ft | 335 kts | 293° |
| 2026-04-30 18:27 | 59.97695 | 26.12687 | 10270 ft | 332 kts | 300° |
| 2026-04-30 18:27 | 59.98728 | 26.08578 | 10250 ft | 331 kts | 302° |
| 2026-04-30 18:28 | 60.00939 | 26.00599 | 10202 ft | 330 kts | 304° |
| 2026-04-30 18:28 | 60.02042 | 25.96570 | 10203 ft | 331 kts | 302° |
| 2026-04-30 18:28 | 60.04378 | 25.88677 | 10249 ft | 329 kts | 309° |
| 2026-04-30 18:29 | 60.05635 | 25.84855 | 10252 ft | 330 kts | 305° |
| 2026-04-30 18:29 | 60.09224 | 25.73112 | 10245 ft | 329 kts | 307° |
| 2026-04-30 18:30 | 60.11592 | 25.65239 | 10271 ft | 331 kts | 302° |
| 2026-04-30 18:30 | 60.13637 | 25.56927 | 10261 ft | 332 kts | 300° |
| 2026-04-30 18:31 | 60.14633 | 25.52814 | 10261 ft | 332 kts | 301° |
| 2026-04-30 18:31 | 60.16770 | 25.44618 | 10275 ft | 331 kts | 304° |
| 2026-04-30 18:32 | 60.18887 | 25.36960 | 10249 ft | 298 kts | 303° |
| 2026-04-30 18:32 | 60.19830 | 25.33379 | 10230 ft | 282 kts | 302° |
| 2026-04-30 18:32 | 60.21507 | 25.26240 | 9985 ft | 287 kts | 301° |
| 2026-04-30 18:33 | 60.22376 | 25.22635 | 9537 ft | 283 kts | 306° |
| 2026-04-30 18:33 | 60.25578 | 25.18602 | 7674 ft | 298 kts | 358° |
| 2026-04-30 18:33 | 60.27663 | 25.18441 | 7202 ft | 297 kts | 357° |
| 2026-04-30 18:34 | 60.29674 | 25.18473 | 6877 ft | 291 kts | 10° |
| 2026-04-30 18:34 | 60.33018 | 25.23177 | 5828 ft | 302 kts | 47° |
| 2026-04-30 18:34 | 60.34323 | 25.26403 | 5645 ft | 292 kts | 48° |
| 2026-04-30 18:35 | 60.35521 | 25.29661 | 5381 ft | 286 kts | 49° |
| 2026-04-30 18:35 | 60.36706 | 25.32837 | 5113 ft | 280 kts | 49° |
| 2026-04-30 18:35 | 60.37891 | 25.35949 | 4708 ft | 280 kts | 48° |
| 2026-04-30 18:36 | 60.40875 | 25.40452 | 3458 ft | 281 kts | 356° |
| 2026-04-30 18:36 | 60.42695 | 25.39296 | 3104 ft | 274 kts | 325° |
| 2026-04-30 18:36 | 60.45031 | 25.33594 | 2837 ft | 254 kts | 306° |
| 2026-04-30 18:37 | 60.46027 | 25.30767 | 2878 ft | 238 kts | 307° |
| 2026-04-30 18:37 | 60.46785 | 25.27909 | 2827 ft | 236 kts | 275° |
| 2026-04-30 18:37 | 60.46105 | 25.24900 | 2475 ft | 253 kts | 220° |
| 2026-04-30 18:37 | 60.44660 | 25.23003 | 2349 ft | 243 kts | 218° |
| 2026-04-30 18:38 | 60.43330 | 25.20880 | 2298 ft | 242 kts | 226° |
| 2026-04-30 18:38 | 60.42155 | 25.18460 | 2242 ft | 237 kts | 229° |
| 2026-04-30 18:38 | 60.41054 | 25.16011 | 2187 ft | 236 kts | 231° |
| 2026-04-30 18:38 | 60.39976 | 25.13504 | 2055 ft | 235 kts | 230° |
| 2026-04-30 18:39 | 60.38886 | 25.11044 | 1859 ft | 236 kts | 230° |
| 2026-04-30 18:39 | 60.37838 | 25.08585 | 1573 ft | 231 kts | 232° |
| 2026-04-30 18:39 | 60.36767 | 25.06186 | 1272 ft | 228 kts | 229° |
| 2026-04-30 18:39 | 60.35710 | 25.03808 | 935 ft | 225 kts | 229° |
| 2026-04-30 18:40 | 60.34671 | 25.01470 | 634 ft | 224 kts | 227° |
| 2026-04-30 18:40 | 60.33629 | 24.99138 | 346 ft | 224 kts | 228° |
| 2026-04-30 18:40 | 60.32573 | 24.96817 | 239 ft | 237 kts | 227° |
| 2026-04-30 18:40 | 60.31297 | 24.94060 | 1079 ft | 284 kts | 227° |
| 2026-04-30 18:41 | 60.29925 | 24.91361 | 2712 ft | 266 kts | 224° |
| 2026-04-30 18:41 | 60.28510 | 24.89055 | 3812 ft | 265 kts | 219° |
| 2026-04-30 18:41 | 60.26734 | 24.87549 | 4070 ft | 292 kts | 195° |
| 2026-04-30 18:41 | 60.24689 | 24.86577 | 4089 ft | 320 kts | 195° |
| 2026-04-30 18:42 | 60.22466 | 24.85527 | 4229 ft | 337 kts | 194° |
| 2026-04-30 18:42 | 60.18168 | 24.83669 | 4226 ft | 299 kts | 193° |
| 2026-04-30 18:42 | 60.16160 | 24.82909 | 4079 ft | 289 kts | 191° |
| 2026-04-30 18:45 | 60.16051 | 25.10905 | 3055 ft | 252 kts | 60° |
| 2026-04-30 18:45 | 60.16912 | 25.13955 | 3029 ft | 251 kts | 49° |
| 2026-04-30 18:45 | 60.18043 | 25.16576 | 3001 ft | 247 kts | 44° |
| 2026-04-30 18:46 | 60.19244 | 25.19039 | 3051 ft | 246 kts | 40° |
| 2026-04-30 18:46 | 60.20505 | 25.21374 | 3060 ft | 247 kts | 38° |
| 2026-04-30 18:46 | 60.21722 | 25.23813 | 3051 ft | 246 kts | 44° |
| 2026-04-30 18:46 | 60.22882 | 25.26365 | 3062 ft | 248 kts | 44° |
| 2026-04-30 18:47 | 60.24049 | 25.28904 | 3083 ft | 247 kts | 45° |
| 2026-04-30 18:47 | 60.25196 | 25.31490 | 3067 ft | 248 kts | 45° |
| 2026-04-30 18:47 | 60.26364 | 25.34034 | 3046 ft | 247 kts | 44° |
| 2026-04-30 18:47 | 60.27532 | 25.36571 | 3029 ft | 247 kts | 44° |
| 2026-04-30 18:48 | 60.28714 | 25.39072 | 3032 ft | 246 kts | 44° |
| 2026-04-30 18:48 | 60.29845 | 25.41623 | 3002 ft | 247 kts | 45° |
| 2026-04-30 18:48 | 60.30987 | 25.44189 | 3098 ft | 246 kts | 44° |
| 2026-04-30 18:48 | 60.32119 | 25.46664 | 3217 ft | 236 kts | 43° |
| 2026-04-30 18:49 | 60.33277 | 25.49065 | 3049 ft | 237 kts | 41° |
| 2026-04-30 18:49 | 60.34406 | 25.51455 | 3090 ft | 236 kts | 42° |
| 2026-04-30 18:49 | 60.35736 | 25.53349 | 2937 ft | 234 kts | 18° |
| 2026-04-30 18:49 | 60.37292 | 25.53856 | 2970 ft | 225 kts | 352° |
| 2026-04-30 18:50 | 60.38749 | 25.52836 | 3026 ft | 223 kts | 326° |
| 2026-04-30 18:50 | 60.39887 | 25.50696 | 3096 ft | 225 kts | 314° |
| 2026-04-30 18:50 | 60.40929 | 25.48396 | 3110 ft | 215 kts | 313° |
| 2026-04-30 18:50 | 60.41897 | 25.46126 | 3069 ft | 214 kts | 312° |
| 2026-04-30 18:51 | 60.42862 | 25.43837 | 3038 ft | 213 kts | 311° |
| 2026-04-30 18:51 | 60.43800 | 25.41555 | 2982 ft | 215 kts | 311° |
| 2026-04-30 18:51 | 60.44737 | 25.39222 | 2965 ft | 212 kts | 311° |
| 2026-04-30 18:51 | 60.45714 | 25.36969 | 3035 ft | 213 kts | 313° |
| 2026-04-30 18:52 | 60.46430 | 25.34338 | 2993 ft | 218 kts | 283° |
| 2026-04-30 18:52 | 60.46332 | 25.31294 | 2916 ft | 217 kts | 258° |
| 2026-04-30 18:52 | 60.45883 | 25.28370 | 2919 ft | 219 kts | 255° |
| 2026-04-30 18:52 | 60.45227 | 25.25629 | 2871 ft | 223 kts | 233° |
| 2026-04-30 18:53 | 60.44234 | 25.23240 | 2927 ft | 223 kts | 235° |
| 2026-04-30 18:53 | 60.43239 | 25.20801 | 2907 ft | 224 kts | 232° |
| 2026-04-30 18:53 | 60.42182 | 25.18458 | 2862 ft | 226 kts | 231° |
| 2026-04-30 18:53 | 60.41119 | 25.16130 | 2664 ft | 227 kts | 231° |
| 2026-04-30 18:54 | 60.40094 | 25.13794 | 2273 ft | 222 kts | 234° |
| 2026-04-30 18:54 | 60.39112 | 25.11406 | 1909 ft | 220 kts | 230° |
| 2026-04-30 18:54 | 60.38083 | 25.09144 | 1615 ft | 217 kts | 231° |
| 2026-04-30 18:54 | 60.37093 | 25.06867 | 1292 ft | 215 kts | 230° |
| 2026-04-30 18:55 | 60.36098 | 25.04640 | 1013 ft | 212 kts | 230° |
| 2026-04-30 18:55 | 60.34135 | 25.00251 | 464 ft | 210 kts | 227° |
| 2026-04-30 18:55 | 60.33143 | 24.98077 | 232 ft | 209 kts | 227° |
| 2026-04-30 18:56 | 60.31283 | 24.93878 | 165 ft | 190 kts | 218° |